Time,TemperatureF,DewpointF,PressureIn,WindDirection,WindDirectionDegrees,WindSpeedMPH,WindSpeedGustMPH,Humidity,HourlyPrecipIn,Conditions,Clouds,dailyrainin,SoftwareType,DateUTC
2013-02-10 00:00:00,24.0,19.9,29.62,SW,227,0.0,0.0,84,0.00,-RA,OVC,0.00,WeatherDisplay:10.37,2013-02-10 07:00:00,
2013-02-10 00:05:00,23.8,19.7,29.62,SW,227,0.0,0.0,84,0.00,-RA,OVC,0.00,WeatherDisplay:10.37,2013-02-10 07:05:00,
2013-02-10 00:10:00,23.6,19.8,29.62,SW,227,0.0,0.0,85,0.00,-RA,OVC,0.00,WeatherDisplay:10.37,2013-02-10 07:10:00,
2013-02-10 00:15:00,23.3,19.5,29.62,SW,227,0.0,0.0,85,0.00,-RA,OVC,0.00,WeatherDisplay:10.37,2013-02-10 07:15:00,
2013-02-10 00:20:00,23.1,19.3,29.62,SW,227,0.0,0.0,85,0.00,-RA,OVC,0.00,WeatherDisplay:10.37,2013-02-10 07:20:00,
2013-02-10 00:25:00,22.9,19.3,29.62,SW,227,0.0,0.0,86,0.00,-RA,OVC,0.00,WeatherDisplay:10.37,2013-02-10 07:25:00,
2013-02-10 00:30:00,22.7,19.1,29.62,SW,227,0.0,0.0,86,0.00,-RA,OVC,0.00,WeatherDisplay:10.37,2013-02-10 07:30:00,
2013-02-10 00:35:00,22.5,18.9,29.62,SW,227,0.0,0.0,86,0.00,-RA,OVC,0.00,WeatherDisplay:10.37,2013-02-10 07:35:00,
2013-02-10 00:40:00,22.4,18.8,29.62,SW,227,0.0,0.0,86,0.00,-RA,OVC,0.00,WeatherDisplay:10.37,2013-02-10 07:40:00,
2013-02-10 00:45:00,22.2,18.7,29.62,SW,227,0.0,0.0,86,0.00,-RA,OVC,0.00,WeatherDisplay:10.37,2013-02-10 07:45:00,
2013-02-10 00:50:00,22.1,18.8,29.62,SW,227,0.0,0.0,87,0.00,-RA,OVC,0.00,WeatherDisplay:10.37,2013-02-10 07:50:00,
2013-02-10 00:55:00,22.0,18.7,29.62,SW,227,0.0,0.0,87,0.00,-RA,OVC,0.00,WeatherDisplay:10.37,2013-02-10 07:55:00,
2013-02-10 01:00:00,21.9,18.6,29.62,SW,227,0.0,0.0,87,0.00,-RA,OVC,0.00,WeatherDisplay:10.37,2013-02-10 08:00:00,
2013-02-10 01:05:00,21.9,18.9,29.62,SW,227,0.0,0.0,88,0.00,-RA,OVC,0.00,WeatherDisplay:10.37,2013-02-10 08:05:00,
2013-02-10 01:10:00,21.8,18.5,29.62,SW,227,0.0,0.0,87,0.00,-RA,OVC,0.00,WeatherDisplay:10.37,2013-02-10 08:10:00,
2013-02-10 01:15:00,21.7,18.4,29.62,SW,227,1.1,1.1,87,0.00,-RA,OVC,0.00,WeatherDisplay:10.37,2013-02-10 08:15:00,
2013-02-10 01:20:00,21.8,18.8,29.62,SW,227,0.0,0.0,88,0.00,-RA,OVC,0.00,WeatherDisplay:10.37,2013-02-10 08:20:00,
2013-02-10 01:25:00,21.9,18.9,29.62,SW,227,0.0,0.0,88,0.00,-RA,OVC,0.00,WeatherDisplay:10.37,2013-02-10 08:25:00,
2013-02-10 01:30:00,22.0,19.0,29.63,SW,227,1.1,0.0,88,0.00,-RA,OVC,0.00,WeatherDisplay:10.37,2013-02-10 08:30:00,
2013-02-10 01:35:00,22.2,19.2,29.63,SW,227,2.3,2.3,88,0.00,-RA,OVC,0.00,WeatherDisplay:10.37,2013-02-10 08:35:00,
2013-02-10 01:40:00,22.2,18.9,29.63,SW,227,0.0,0.0,87,0.00,-RA,OVC,0.00,WeatherDisplay:10.37,2013-02-10 08:40:00,
2013-02-10 01:45:00,22.2,18.9,29.63,SW,227,0.0,0.0,87,0.00,-RA,OVC,0.00,WeatherDisplay:10.37,2013-02-10 08:45:00,
2013-02-10 01:50:00,22.1,18.8,29.63,SW,227,0.0,0.0,87,0.00,-RA,OVC,0.00,WeatherDisplay:10.37,2013-02-10 08:50:00,
2013-02-10 01:55:00,22.1,18.8,29.63,SW,227,0.0,0.0,87,0.00,-RA,OVC,0.00,WeatherDisplay:10.37,2013-02-10 08:55:00,
2013-02-10 02:00:00,22.2,18.9,29.63,SW,227,0.0,0.0,87,0.00,-RA,OVC,0.00,WeatherDisplay:10.37,2013-02-10 09:00:00,
2013-02-10 02:05:00,22.1,18.8,29.63,SW,226,2.3,2.3,87,0.00,-RA,OVC,0.00,WeatherDisplay:10.37,2013-02-10 09:05:00,
2013-02-10 02:10:00,22.2,18.9,29.63,SW,226,2.3,2.3,87,0.00,-RA,OVC,0.00,WeatherDisplay:10.37,2013-02-10 09:10:00,
2013-02-10 02:15:00,22.3,19.0,29.63,SW,227,2.3,2.3,87,0.00,-RA,OVC,0.00,WeatherDisplay:10.37,2013-02-10 09:15:00,
2013-02-10 02:20:00,22.5,19.5,29.63,SW,228,0.0,0.0,88,0.00,-RA,OVC,0.00,WeatherDisplay:10.37,2013-02-10 09:20:00,
2013-02-10 02:25:00,22.6,19.3,29.63,SW,228,0.0,0.1,87,0.00,-RA,OVC,0.00,WeatherDisplay:10.37,2013-02-10 09:25:00,
2013-02-10 02:30:00,22.6,19.3,29.64,SW,229,2.3,2.3,87,0.00,-RA,OVC,0.00,WeatherDisplay:10.37,2013-02-10 09:30:00,
2013-02-10 02:35:00,22.9,19.6,29.64,South,188,0.0,0.0,87,0.00,-RA,OVC,0.00,WeatherDisplay:10.37,2013-02-10 09:35:00,
2013-02-10 02:40:00,22.9,19.6,29.64,South,188,0.0,0.0,87,0.00,-RA,OVC,0.00,WeatherDisplay:10.37,2013-02-10 09:40:00,
2013-02-10 02:45:00,23.0,19.7,29.64,South,188,0.0,0.0,87,0.00,-RA,OVC,0.00,WeatherDisplay:10.37,2013-02-10 09:45:00,
2013-02-10 02:50:00,23.1,19.8,29.64,South,186,1.1,1.1,87,0.00,-RA,OVC,0.00,WeatherDisplay:10.37,2013-02-10 09:50:00,
2013-02-10 02:55:00,23.4,19.8,29.64,South,186,0.0,0.0,86,0.00,-RA,OVC,0.00,WeatherDisplay:10.37,2013-02-10 09:55:00,
2013-02-10 03:00:00,23.4,19.8,29.64,South,186,0.0,0.0,86,0.00,-RA,OVC,0.00,WeatherDisplay:10.37,2013-02-10 10:00:00,
2013-02-10 03:05:00,23.4,19.8,29.64,South,186,1.1,1.1,86,0.00,-RA,OVC,0.00,WeatherDisplay:10.37,2013-02-10 10:05:00,
2013-02-10 03:10:00,23.4,19.6,29.64,South,186,0.0,0.0,85,0.00,-RA,OVC,0.00,WeatherDisplay:10.37,2013-02-10 10:10:00,
2013-02-10 03:15:00,23.3,19.7,29.64,South,186,0.0,0.0,86,0.00,-RA,OVC,0.00,WeatherDisplay:10.37,2013-02-10 10:15:00,
2013-02-10 03:20:00,23.2,19.6,29.64,South,186,0.0,0.0,86,0.00,-RA,OVC,0.00,WeatherDisplay:10.37,2013-02-10 10:20:00,
2013-02-10 03:25:00,23.1,19.5,29.64,South,186,0.0,0.0,86,0.00,-RA,OVC,0.00,WeatherDisplay:10.37,2013-02-10 10:25:00,
2013-02-10 03:30:00,23.0,19.4,29.64,South,186,0.0,0.0,86,0.00,-RA,OVC,0.00,WeatherDisplay:10.37,2013-02-10 10:30:00,
2013-02-10 03:35:00,22.9,19.3,29.64,South,186,0.0,0.0,86,0.00,-RA,OVC,0.00,WeatherDisplay:10.37,2013-02-10 10:35:00,
2013-02-10 03:40:00,22.9,19.3,29.64,South,186,0.0,0.0,86,0.00,-RA,OVC,0.00,WeatherDisplay:10.37,2013-02-10 10:40:00,
2013-02-10 03:45:00,22.9,19.3,29.64,South,186,0.0,0.0,86,0.00,-RA,OVC,0.00,WeatherDisplay:10.37,2013-02-10 10:45:00,
2013-02-10 03:50:00,22.9,19.6,29.64,South,186,0.0,0.0,87,0.00,-RA,OVC,0.00,WeatherDisplay:10.37,2013-02-10 10:50:00,
2013-02-10 03:55:00,22.9,19.6,29.64,South,186,0.0,0.0,87,0.00,-RA,OVC,0.00,WeatherDisplay:10.37,2013-02-10 10:55:00,
2013-02-10 04:00:00,22.9,19.6,29.64,South,186,0.0,0.0,87,0.00,-RA,OVC,0.00,WeatherDisplay:10.37,2013-02-10 11:00:00,
2013-02-10 04:05:00,22.9,19.6,29.64,South,186,0.0,0.0,87,0.00,-RA,OVC,0.00,WeatherDisplay:10.37,2013-02-10 11:05:00,
2013-02-10 04:10:00,22.9,19.6,29.64,South,186,1.1,0.0,87,0.00,-RA,OVC,0.00,WeatherDisplay:10.37,2013-02-10 11:10:00,
2013-02-10 04:15:00,22.9,19.6,29.64,South,186,0.0,0.0,87,0.00,-RA,OVC,0.00,WeatherDisplay:10.37,2013-02-10 11:15:00,
2013-02-10 04:20:00,22.8,19.5,29.64,South,186,0.0,0.0,87,0.00,-RA,OVC,0.00,WeatherDisplay:10.37,2013-02-10 11:20:00,
2013-02-10 04:25:00,22.7,19.4,29.64,South,186,2.3,2.3,87,0.00,-RA,OVC,0.00,WeatherDisplay:10.37,2013-02-10 11:25:00,
2013-02-10 04:30:00,22.7,19.4,29.64,South,186,0.0,0.0,87,0.00,-RA,OVC,0.00,WeatherDisplay:10.37,2013-02-10 11:30:00,
2013-02-10 04:35:00,22.7,19.4,29.64,South,186,0.0,0.0,87,0.00,-RA,OVC,0.00,WeatherDisplay:10.37,2013-02-10 11:35:00,
2013-02-10 04:40:00,22.6,19.3,29.64,South,186,0.0,0.0,87,0.00,-RA,OVC,0.00,WeatherDisplay:10.37,2013-02-10 11:40:00,
2013-02-10 04:45:00,22.4,19.1,29.64,South,186,0.0,0.0,87,0.00,-RA,OVC,0.00,WeatherDisplay:10.37,2013-02-10 11:45:00,
2013-02-10 04:50:00,22.3,19.0,29.64,South,186,0.0,0.0,87,0.00,-RA,OVC,0.00,WeatherDisplay:10.37,2013-02-10 11:50:00,
2013-02-10 04:55:00,22.3,19.0,29.64,South,186,0.0,0.0,87,0.00,-RA,OVC,0.00,WeatherDisplay:10.37,2013-02-10 11:55:00,
2013-02-10 05:00:00,22.3,19.3,29.64,South,186,0.0,0.0,88,0.00,-RA,OVC,0.00,WeatherDisplay:10.37,2013-02-10 12:00:00,
2013-02-10 05:05:00,22.2,18.9,29.64,South,186,0.0,0.0,87,0.00,-RA,OVC,0.00,WeatherDisplay:10.37,2013-02-10 12:05:00,
2013-02-10 05:10:00,22.1,18.8,29.64,South,186,0.0,0.0,87,0.00,-RA,OVC,0.00,WeatherDisplay:10.37,2013-02-10 12:10:00,
2013-02-10 05:15:00,22.1,19.1,29.64,South,186,0.0,0.0,88,0.00,-RA,OVC,0.00,WeatherDisplay:10.37,2013-02-10 12:15:00,
2013-02-10 05:20:00,22.1,19.1,29.64,South,186,0.0,0.0,88,0.00,-RA,OVC,0.00,WeatherDisplay:10.37,2013-02-10 12:20:00,
2013-02-10 05:25:00,22.2,19.2,29.64,South,186,1.1,1.1,88,0.00,-RA,OVC,0.00,WeatherDisplay:10.37,2013-02-10 12:25:00,
2013-02-10 05:30:00,22.5,19.5,29.64,South,186,0.0,0.0,88,0.00,-RA,OVC,0.00,WeatherDisplay:10.37,2013-02-10 12:30:00,
2013-02-10 05:35:00,22.6,19.3,29.64,South,186,0.0,0.0,87,0.00,-RA,OVC,0.00,WeatherDisplay:10.37,2013-02-10 12:35:00,
2013-02-10 05:40:00,22.6,19.3,29.64,South,186,0.0,0.0,87,0.00,-RA,OVC,0.00,WeatherDisplay:10.37,2013-02-10 12:40:00,
2013-02-10 05:45:00,22.8,19.2,29.64,South,186,0.0,0.0,86,0.00,-RA,OVC,0.00,WeatherDisplay:10.37,2013-02-10 12:45:00,
2013-02-10 05:50:00,22.9,19.3,29.64,South,186,0.0,0.0,86,0.00,-RA,OVC,0.00,WeatherDisplay:10.37,2013-02-10 12:50:00,
2013-02-10 05:55:00,23.0,19.4,29.64,South,186,0.0,0.0,86,0.00,-RA,OVC,0.00,WeatherDisplay:10.37,2013-02-10 12:55:00,
2013-02-10 06:00:00,23.0,19.4,29.64,South,186,0.0,0.0,86,0.00,-RA,OVC,0.00,WeatherDisplay:10.37,2013-02-10 13:00:00,
2013-02-10 06:05:00,23.0,19.4,29.64,South,186,0.0,0.0,86,0.00,-RA,OVC,0.00,WeatherDisplay:10.37,2013-02-10 13:05:00,
2013-02-10 06:10:00,23.1,19.5,29.64,South,186,0.0,0.0,86,0.00,-RA,OVC,0.00,WeatherDisplay:10.37,2013-02-10 13:10:00,
2013-02-10 06:15:00,23.1,19.5,29.64,South,186,0.0,0.0,86,0.00,-RA,OVC,0.00,WeatherDisplay:10.37,2013-02-10 13:15:00,
2013-02-10 06:20:00,23.1,19.5,29.64,South,186,0.0,0.0,86,0.00,-RA,OVC,0.00,WeatherDisplay:10.37,2013-02-10 13:20:00,
2013-02-10 06:25:00,23.1,19.5,29.64,South,186,0.0,0.0,86,0.00,-RA,OVC,0.00,WeatherDisplay:10.37,2013-02-10 13:25:00,
2013-02-10 06:30:00,23.2,19.6,29.64,South,186,0.0,0.0,86,0.00,-RA,OVC,0.00,WeatherDisplay:10.37,2013-02-10 13:30:00,
2013-02-10 06:35:00,23.2,19.6,29.64,South,186,0.0,0.0,86,0.00,-RA,OVC,0.00,WeatherDisplay:10.37,2013-02-10 13:35:00,
2013-02-10 06:40:00,23.3,19.7,29.64,South,186,0.0,0.0,86,0.00,-RA,OVC,0.00,WeatherDisplay:10.37,2013-02-10 13:40:00,
2013-02-10 06:45:00,23.3,19.7,29.64,South,186,0.0,0.0,86,0.00,-RA,OVC,0.00,WeatherDisplay:10.37,2013-02-10 13:45:00,
2013-02-10 06:50:00,23.3,19.7,29.64,South,186,0.0,0.0,86,0.00,-RA,OVC,0.00,WeatherDisplay:10.37,2013-02-10 13:50:00,
2013-02-10 06:55:00,23.4,19.8,29.64,South,186,1.1,1.1,86,0.00,-RA,OVC,0.00,WeatherDisplay:10.37,2013-02-10 13:55:00,
2013-02-10 07:00:00,23.5,20.2,29.64,South,186,2.3,2.3,87,0.00,-RA,OVC,0.00,WeatherDisplay:10.37,2013-02-10 14:00:00,
2013-02-10 07:05:00,23.8,20.5,29.64,South,186,2.3,2.3,87,0.00,-RA,OVC,0.00,WeatherDisplay:10.37,2013-02-10 14:05:00,
2013-02-10 07:10:00,24.0,20.4,29.64,South,187,2.3,0.0,86,0.00,-RA,OVC,0.00,WeatherDisplay:10.37,2013-02-10 14:10:00,
2013-02-10 07:15:00,24.1,20.2,29.74,South,187,2.3,2.3,85,0.00,-RA,OVC,0.00,WeatherDisplay:10.37,2013-02-10 14:15:00,
2013-02-10 07:20:00,24.2,20.1,29.74,South,188,0.0,0.0,84,0.00,-RA,OVC,0.00,WeatherDisplay:10.37,2013-02-10 14:20:00,
2013-02-10 07:25:00,24.2,20.1,29.74,South,188,0.0,0.0,84,0.00,-RA,OVC,0.00,WeatherDisplay:10.37,2013-02-10 14:25:00,
2013-02-10 07:30:00,24.3,20.2,29.74,South,188,0.0,0.0,84,0.00,-RA,OVC,0.00,WeatherDisplay:10.37,2013-02-10 14:30:00,
2013-02-10 07:35:00,24.4,20.3,29.74,South,188,0.0,0.0,84,0.00,-RA,OVC,0.00,WeatherDisplay:10.37,2013-02-10 14:35:00,
2013-02-10 07:40:00,24.5,20.1,29.74,South,188,0.0,0.0,83,0.00,-RA,OVC,0.00,WeatherDisplay:10.37,2013-02-10 14:40:00,
2013-02-10 07:45:00,24.7,20.3,29.74,South,188,2.3,2.3,83,0.00,-RA,OVC,0.00,WeatherDisplay:10.37,2013-02-10 14:45:00,
2013-02-10 07:50:00,24.8,20.1,29.74,South,188,0.0,0.0,82,0.00,-RA,OVC,0.00,WeatherDisplay:10.37,2013-02-10 14:50:00,
2013-02-10 07:55:00,25.1,20.4,29.74,South,188,0.0,0.3,82,0.00,-RA,OVC,0.00,WeatherDisplay:10.37,2013-02-10 14:55:00,
2013-02-10 08:00:00,25.3,20.3,29.74,South,188,0.0,0.0,81,0.00,-RA,OVC,0.00,WeatherDisplay:10.37,2013-02-10 15:00:00,
2013-02-10 08:05:00,25.6,20.6,29.74,South,188,1.1,1.1,81,0.00,-RA,OVC,0.00,WeatherDisplay:10.37,2013-02-10 15:05:00,
2013-02-10 08:10:00,25.8,20.5,29.74,South,188,2.3,2.3,80,0.00,-RA,OVC,0.00,WeatherDisplay:10.37,2013-02-10 15:10:00,
2013-02-10 08:15:00,26.0,20.4,29.77,ESE,112,2.3,2.3,79,0.00,-RA,OVC,0.00,WeatherDisplay:10.37,2013-02-10 15:15:00,
2013-02-10 08:20:00,26.1,20.5,29.77,ESE,112,2.3,2.3,79,0.00,-RA,OVC,0.00,WeatherDisplay:10.37,2013-02-10 15:20:00,
2013-02-10 08:25:00,26.2,20.6,29.77,ESE,112,0.0,0.4,79,0.00,-RA,OVC,0.00,WeatherDisplay:10.37,2013-02-10 15:25:00,
2013-02-10 08:30:00,26.4,20.5,29.77,ESE,112,2.3,2.3,78,0.00,-RA,OVC,0.00,WeatherDisplay:10.37,2013-02-10 15:30:00,
2013-02-10 08:35:00,26.6,20.4,29.77,ESE,111,3.5,3.5,77,0.00,-RA,OVC,0.00,WeatherDisplay:10.37,2013-02-10 15:35:00,
2013-02-10 08:40:00,26.8,20.6,29.77,ESE,111,3.0,3.0,77,0.00,-RA,OVC,0.00,WeatherDisplay:10.37,2013-02-10 15:40:00,
2013-02-10 08:45:00,27.1,20.5,29.77,ESE,111,1.1,1.1,76,0.00,-RA,OVC,0.00,WeatherDisplay:10.37,2013-02-10 15:45:00,
2013-02-10 08:50:00,27.3,21.0,29.77,ESE,111,1.1,1.1,77,0.00,-RA,OVC,0.00,WeatherDisplay:10.37,2013-02-10 15:50:00,
2013-02-10 08:55:00,27.5,20.3,29.77,ESE,110,3.5,3.5,74,0.00,-RA,OVC,0.00,WeatherDisplay:10.37,2013-02-10 15:55:00,
2013-02-10 09:00:00,27.7,20.5,29.77,ESE,110,1.1,1.1,74,0.00,-RA,OVC,0.00,WeatherDisplay:10.37,2013-02-10 16:00:00,
2013-02-10 09:05:00,27.9,20.4,29.77,ESE,110,1.1,1.1,73,0.00,-RA,OVC,0.00,WeatherDisplay:10.37,2013-02-10 16:05:00,
2013-02-10 09:10:00,28.1,20.6,29.77,ESE,110,0.0,0.5,73,0.00,-RA,OVC,0.00,WeatherDisplay:10.37,2013-02-10 16:10:00,
2013-02-10 09:15:00,28.4,20.8,29.77,ESE,110,2.3,2.3,73,0.00,-RA,OVC,0.00,WeatherDisplay:10.37,2013-02-10 16:15:00,
2013-02-10 09:20:00,28.5,20.6,29.77,ESE,110,3.5,3.5,72,0.00,-RA,OVC,0.00,WeatherDisplay:10.37,2013-02-10 16:20:00,
2013-02-10 09:25:00,28.5,20.3,29.77,ESE,110,0.0,0.0,71,0.00,-RA,OVC,0.00,WeatherDisplay:10.37,2013-02-10 16:25:00,
2013-02-10 09:30:00,28.5,20.0,29.77,East,97,5.8,5.8,70,0.00,-RA,OVC,0.00,WeatherDisplay:10.37,2013-02-10 16:30:00,
2013-02-10 09:35:00,28.6,19.4,29.77,SSE,158,5.8,5.8,68,0.00,-RA,OVC,0.00,WeatherDisplay:10.37,2013-02-10 16:35:00,
2013-02-10 09:40:00,28.7,19.8,29.77,South,184,2.3,2.3,69,0.00,-RA,OVC,0.00,WeatherDisplay:10.37,2013-02-10 16:40:00,
2013-02-10 09:45:00,28.7,19.5,29.82,South,175,4.6,4.6,68,0.00,-RA,OVC,0.00,WeatherDisplay:10.37,2013-02-10 16:45:00,
2013-02-10 09:50:00,28.8,19.2,29.82,South,175,4.0,4.0,67,0.00,-RA,OVC,0.00,WeatherDisplay:10.37,2013-02-10 16:50:00,
2013-02-10 09:55:00,29.0,19.4,29.82,South,175,3.5,3.5,67,0.00,-RA,OVC,0.00,WeatherDisplay:10.37,2013-02-10 16:55:00,
2013-02-10 10:00:00,29.2,19.2,29.82,South,175,3.5,3.5,66,0.00,-RA,OVC,0.00,WeatherDisplay:10.37,2013-02-10 17:00:00,
2013-02-10 10:05:00,29.5,18.8,29.82,South,178,5.0,5.0,64,0.00,-RA,OVC,0.00,WeatherDisplay:10.37,2013-02-10 17:05:00,
2013-02-10 10:10:00,29.6,18.5,29.82,South,178,3.5,3.5,63,0.00,-RA,OVC,0.00,WeatherDisplay:10.37,2013-02-10 17:10:00,
2013-02-10 10:15:00,29.8,19.1,29.82,South,178,2.3,2.3,64,0.00,-RA,OVC,0.00,WeatherDisplay:10.37,2013-02-10 17:15:00,
2013-02-10 10:20:00,30.1,18.6,29.82,South,182,3.5,3.5,62,0.00,-RA,OVC,0.00,WeatherDisplay:10.37,2013-02-10 17:20:00,
2013-02-10 10:25:00,30.3,18.8,29.82,SSE,165,3.5,3.5,62,0.00,-RA,OVC,0.00,WeatherDisplay:10.37,2013-02-10 17:25:00,
2013-02-10 10:30:00,30.5,19.0,29.82,SE,136,3.5,3.5,62,0.00,-RA,OVC,0.00,WeatherDisplay:10.37,2013-02-10 17:30:00,
2013-02-10 10:35:00,30.6,19.1,29.82,SE,136,2.3,2.3,62,0.00,-RA,OVC,0.00,WeatherDisplay:10.37,2013-02-10 17:35:00,
2013-02-10 10:40:00,30.9,17.8,29.82,SE,129,3.5,3.5,58,0.00,-RA,OVC,0.00,WeatherDisplay:10.37,2013-02-10 17:40:00,
2013-02-10 10:45:00,31.1,18.0,29.82,SSW,192,3.5,3.5,58,0.00,-RA,OVC,0.00,WeatherDisplay:10.37,2013-02-10 17:45:00,
2013-02-10 10:50:00,31.3,18.2,29.82,SSW,207,4.6,4.6,58,0.00,-RA,OVC,0.00,WeatherDisplay:10.37,2013-02-10 17:50:00,
2013-02-10 10:55:00,31.5,17.2,29.82,SSW,205,3.5,3.5,55,0.00,-RA,OVC,0.00,WeatherDisplay:10.37,2013-02-10 17:55:00,
2013-02-10 11:00:00,31.7,17.4,29.82,SE,128,5.8,5.8,55,0.00,-RA,OVC,0.00,WeatherDisplay:10.37,2013-02-10 18:00:00,
2013-02-10 11:05:00,31.9,15.3,29.82,SSW,193,6.9,6.9,50,0.00,-RA,OVC,0.00,WeatherDisplay:10.37,2013-02-10 18:05:00,
2013-02-10 11:10:00,32.1,16.0,29.82,ESE,123,4.6,4.6,51,0.00,-RA,OVC,0.00,WeatherDisplay:10.37,2013-02-10 18:10:00,
2013-02-10 11:15:00,32.3,17.5,29.82,SE,127,5.8,5.8,54,0.00,-RA,OVC,0.00,WeatherDisplay:10.37,2013-02-10 18:15:00,
2013-02-10 11:20:00,32.6,16.0,29.82,SE,140,2.3,2.3,50,0.00,-RA,OVC,0.00,WeatherDisplay:10.37,2013-02-10 18:20:00,
2013-02-10 11:25:00,32.6,14.6,29.82,ESE,115,8.1,8.1,47,0.00,-RA,OVC,0.00,WeatherDisplay:10.37,2013-02-10 18:25:00,
2013-02-10 11:30:00,32.5,15.4,29.82,ESE,115,1.1,0.0,49,0.00,-RA,OVC,0.00,WeatherDisplay:10.37,2013-02-10 18:30:00,
2013-02-10 11:35:00,32.8,15.2,29.82,ESE,115,3.5,3.5,48,0.00,-RA,OVC,0.00,WeatherDisplay:10.37,2013-02-10 18:35:00,
2013-02-10 11:40:00,32.7,16.1,29.82,ESE,123,5.8,5.8,50,0.00,-RA,OVC,0.00,WeatherDisplay:10.37,2013-02-10 18:40:00,
2013-02-10 11:45:00,32.7,16.5,29.82,SE,128,3.5,3.5,51,0.00,-RA,OVC,0.00,WeatherDisplay:10.37,2013-02-10 18:45:00,
2013-02-10 11:50:00,33.0,16.4,29.82,ESE,105,4.6,4.6,50,0.00,-RA,OVC,0.00,WeatherDisplay:10.37,2013-02-10 18:50:00,
2013-02-10 11:55:00,33.2,16.5,29.82,ESE,106,3.5,3.5,50,0.00,-RA,OVC,0.00,WeatherDisplay:10.37,2013-02-10 18:55:00,
2013-02-10 12:00:00,33.0,14.9,29.82,SE,143,3.5,3.5,47,0.00,-RA,OVC,0.00,WeatherDisplay:10.37,2013-02-10 19:00:00,
2013-02-10 12:05:00,33.0,15.4,29.82,ESE,123,11.5,11.5,48,0.00,-RA,OVC,0.00,WeatherDisplay:10.37,2013-02-10 19:05:00,
2013-02-10 12:10:00,32.9,14.8,29.82,ESE,122,3.5,3.5,47,0.00,-RA,OVC,0.00,WeatherDisplay:10.37,2013-02-10 19:10:00,
2013-02-10 12:15:00,32.9,15.3,29.82,SSE,150,5.8,5.8,48,0.00,-RA,OVC,0.00,WeatherDisplay:10.37,2013-02-10 19:15:00,
2013-02-10 12:20:00,32.9,15.3,29.82,South,175,3.5,3.5,48,0.00,-RA,OVC,0.00,WeatherDisplay:10.37,2013-02-10 19:20:00,
2013-02-10 12:25:00,33.2,16.1,29.82,SE,142,3.5,3.5,49,0.00,-RA,OVC,0.00,WeatherDisplay:10.37,2013-02-10 19:25:00,
2013-02-10 12:30:00,33.5,15.4,29.82,SE,134,3.5,3.5,47,0.00,-RA,OVC,0.00,WeatherDisplay:10.37,2013-02-10 19:30:00,
2013-02-10 12:35:00,33.6,15.5,29.82,SE,134,1.1,1.1,47,0.01,-RA,OVC,0.01,WeatherDisplay:10.37,2013-02-10 19:35:00,
2013-02-10 12:40:00,34.0,15.4,29.82,NNE,28,5.0,5.0,46,0.01,-RA,OVC,0.01,WeatherDisplay:10.37,2013-02-10 19:40:00,
2013-02-10 12:45:00,34.2,14.0,29.82,NNE,19,3.5,3.5,43,0.01,-RA,OVC,0.01,WeatherDisplay:10.37,2013-02-10 19:45:00,
2013-02-10 12:50:00,34.4,14.2,29.82,NNE,19,3.5,3.5,43,0.01,-RA,OVC,0.01,WeatherDisplay:10.37,2013-02-10 19:50:00,
2013-02-10 12:55:00,34.7,14.5,29.82,NNE,19,3.5,3.5,43,0.01,-RA,OVC,0.01,WeatherDisplay:10.37,2013-02-10 19:55:00,
2013-02-10 13:00:00,35.2,14.9,29.82,South,184,2.3,2.3,43,0.01,-RA,OVC,0.01,WeatherDisplay:10.37,2013-02-10 20:00:00,
2013-02-10 13:05:00,35.0,15.3,29.82,South,173,3.5,3.5,44,0.01,-RA,OVC,0.01,WeatherDisplay:10.37,2013-02-10 20:05:00,
2013-02-10 13:10:00,34.6,14.4,29.82,SW,231,11.0,11.0,43,0.01,-RA,OVC,0.01,WeatherDisplay:10.37,2013-02-10 20:10:00,
2013-02-10 13:15:00,33.9,13.7,29.82,SSE,161,3.5,3.5,43,0.01,-RA,OVC,0.01,WeatherDisplay:10.37,2013-02-10 20:15:00,
2013-02-10 13:20:00,33.7,13.5,29.82,East,101,3.5,3.5,43,0.01,-RA,OVC,0.01,WeatherDisplay:10.37,2013-02-10 20:20:00,
2013-02-10 13:25:00,33.8,12.6,29.82,South,173,3.5,3.5,41,0.01,-RA,OVC,0.01,WeatherDisplay:10.37,2013-02-10 20:25:00,
2013-02-10 13:30:00,34.0,13.3,29.82,South,185,6.9,6.9,42,0.01,-RA,OVC,0.01,WeatherDisplay:10.37,2013-02-10 20:30:00,
2013-02-10 13:35:00,33.8,12.6,29.82,SSW,208,8.1,8.1,41,0.00,-RA,OVC,0.01,WeatherDisplay:10.37,2013-02-10 20:35:00,
2013-02-10 13:40:00,33.7,11.9,29.82,SSW,197,3.5,3.5,40,0.00,-RA,OVC,0.01,WeatherDisplay:10.37,2013-02-10 20:40:00,
2013-02-10 13:45:00,33.8,11.4,29.82,SSW,196,4.6,4.6,39,0.00,-RA,OVC,0.01,WeatherDisplay:10.37,2013-02-10 20:45:00,
2013-02-10 13:50:00,33.8,13.6,29.82,South,178,5.0,5.6,43,0.00,-RA,OVC,0.01,WeatherDisplay:10.37,2013-02-10 20:50:00,
2013-02-10 13:55:00,33.7,13.0,29.82,South,185,6.9,6.9,42,0.00,-RA,OVC,0.01,WeatherDisplay:10.37,2013-02-10 20:55:00,
2013-02-10 14:00:00,33.7,13.0,29.82,SE,139,5.8,5.8,42,0.00,-RA,OVC,0.01,WeatherDisplay:10.37,2013-02-10 21:00:00,
2013-02-10 14:05:00,33.7,13.0,29.82,South,178,5.0,5.0,42,0.00,-RA,OVC,0.01,WeatherDisplay:10.37,2013-02-10 21:05:00,
2013-02-10 14:10:00,33.9,13.2,29.82,SSE,159,3.5,3.5,42,0.00,-RA,OVC,0.01,WeatherDisplay:10.37,2013-02-10 21:10:00,
2013-02-10 14:15:00,34.1,11.7,29.82,SE,141,3.5,3.5,39,0.00,-RA,OVC,0.01,WeatherDisplay:10.37,2013-02-10 21:15:00,
2013-02-10 14:20:00,34.3,13.0,29.82,SE,144,3.5,3.5,41,0.00,-RA,OVC,0.01,WeatherDisplay:10.37,2013-02-10 21:20:00,
2013-02-10 14:25:00,34.6,12.7,29.83,South,183,5.8,5.8,40,0.00,-RA,OVC,0.01,WeatherDisplay:10.37,2013-02-10 21:25:00,
2013-02-10 14:30:00,34.4,12.0,29.83,SSE,151,8.1,8.1,39,0.00,-RA,OVC,0.01,WeatherDisplay:10.37,2013-02-10 21:30:00,
2013-02-10 14:35:00,34.3,12.4,29.83,SSE,155,6.9,6.9,40,0.00,-RA,OVC,0.01,WeatherDisplay:10.37,2013-02-10 21:35:00,
2013-02-10 14:40:00,34.4,12.0,29.83,SSE,156,3.5,3.5,39,0.00,-RA,OVC,0.01,WeatherDisplay:10.37,2013-02-10 21:40:00,
2013-02-10 14:45:00,34.6,12.1,29.83,SW,236,10.4,10.4,39,0.00,-RA,OVC,0.01,WeatherDisplay:10.37,2013-02-10 21:45:00,
2013-02-10 14:50:00,34.6,11.6,29.83,SSW,213,6.0,6.0,38,0.00,-RA,OVC,0.01,WeatherDisplay:10.37,2013-02-10 21:50:00,
2013-02-10 14:55:00,34.2,11.8,29.83,SSW,211,5.0,5.0,39,0.00,-RA,OVC,0.01,WeatherDisplay:10.37,2013-02-10 21:55:00,
2013-02-10 15:00:00,34.2,11.2,29.83,SSW,210,5.8,5.8,38,0.00,-RA,OVC,0.01,WeatherDisplay:10.37,2013-02-10 22:00:00,
2013-02-10 15:05:00,34.2,11.8,29.83,WSW,250,4.6,4.6,39,0.00,-RA,OVC,0.01,WeatherDisplay:10.37,2013-02-10 22:05:00,
2013-02-10 15:10:00,34.2,11.2,29.83,West,270,4.6,4.6,38,0.00,-RA,OVC,0.01,WeatherDisplay:10.37,2013-02-10 22:10:00,
2013-02-10 15:15:00,34.0,11.0,29.83,West,274,6.9,6.9,38,0.00,-RA,OVC,0.01,WeatherDisplay:10.37,2013-02-10 22:15:00,
2013-02-10 15:19:00,33.9,10.3,29.83,West,261,3.5,3.5,37,0.00,-RA,OVC,0.01,WeatherDisplay:10.37,2013-02-10 22:19:00,
2013-02-10 15:20:00,33.9,10.3,29.83,West,261,3.5,3.5,37,0.00,-RA,OVC,0.01,WeatherDisplay:10.37,2013-02-10 22:20:00,
2013-02-10 15:25:00,33.9,10.3,29.83,West,261,3.5,3.5,37,0.00,-RA,OVC,0.01,WeatherDisplay:10.37,2013-02-10 22:25:00,
2013-02-10 15:37:00,33.9,10.3,29.83,West,260,3.5,3.5,37,0.00,-RA,OVC,0.01,WeatherDisplay:10.37,2013-02-10 22:37:00,
2013-02-10 15:42:00,33.7,10.1,29.83,West,269,3.5,3.5,37,0.00,-RA,OVC,0.01,WeatherDisplay:10.37,2013-02-10 22:42:00,
2013-02-10 15:47:00,33.5,10.0,29.85,West,269,3.5,3.5,37,0.00,-RA,OVC,0.01,WeatherDisplay:10.37,2013-02-10 22:47:00,
2013-02-10 15:52:00,33.5,10.0,29.85,SW,229,4.6,4.6,37,0.00,-RA,OVC,0.01,WeatherDisplay:10.37,2013-02-10 22:52:00,
2013-02-10 15:57:00,33.4,9.9,29.85,WSW,237,5.8,5.8,37,0.00,-RA,OVC,0.01,WeatherDisplay:10.37,2013-02-10 22:57:00,
2013-02-10 16:02:00,33.3,9.8,29.85,WSW,246,6.9,6.9,37,0.00,-RA,OVC,0.01,WeatherDisplay:10.37,2013-02-10 23:02:00,
2013-02-10 16:07:00,33.3,9.8,29.85,SW,228,3.5,3.5,37,0.00,-RA,OVC,0.01,WeatherDisplay:10.37,2013-02-10 23:07:00,
2013-02-10 16:12:00,33.2,10.3,29.85,SW,216,3.5,3.5,38,0.00,-RA,OVC,0.01,WeatherDisplay:10.37,2013-02-10 23:12:00,
2013-02-10 16:17:00,33.3,10.4,29.85,SW,230,4.6,4.6,38,0.00,-RA,OVC,0.01,WeatherDisplay:10.37,2013-02-10 23:17:00,
2013-02-10 16:22:00,33.0,10.1,29.85,WSW,244,6.0,6.0,38,0.00,-RA,OVC,0.01,WeatherDisplay:10.37,2013-02-10 23:22:00,
2013-02-10 16:27:00,32.7,10.4,29.85,WSW,238,9.2,9.2,39,0.00,-RA,OVC,0.01,WeatherDisplay:10.37,2013-02-10 23:27:00,
2013-02-10 16:32:00,32.4,10.2,29.85,SW,229,6.9,6.9,39,0.00,-RA,OVC,0.01,WeatherDisplay:10.37,2013-02-10 23:32:00,
2013-02-10 16:37:00,32.2,10.0,29.87,SW,221,5.8,5.8,39,0.00,-RA,OVC,0.01,WeatherDisplay:10.37,2013-02-10 23:37:00,
2013-02-10 16:42:00,32.1,10.5,29.87,SSW,210,6.9,6.9,40,0.00,-RA,OVC,0.01,WeatherDisplay:10.37,2013-02-10 23:42:00,
2013-02-10 16:47:00,32.1,10.5,29.87,SSW,209,3.5,3.5,40,0.00,-RA,OVC,0.01,WeatherDisplay:10.37,2013-02-10 23:47:00,
2013-02-10 16:52:00,32.0,9.8,29.87,SW,217,5.8,5.8,39,0.00,-RA,OVC,0.01,WeatherDisplay:10.37,2013-02-10 23:52:00,
2013-02-10 16:57:00,31.9,9.7,29.87,SW,226,4.6,4.6,39,0.00,-RA,OVC,0.01,WeatherDisplay:10.37,2013-02-10 23:57:00,
2013-02-10 17:02:00,31.7,9.5,29.87,SW,228,3.5,3.5,39,0.00,-RA,OVC,0.01,WeatherDisplay:10.37,2013-02-11 00:02:00,
2013-02-10 17:07:00,31.6,10.0,29.87,SSW,193,3.5,3.5,40,0.00,-RA,OVC,0.01,WeatherDisplay:10.37,2013-02-11 00:07:00,
2013-02-10 17:12:00,31.5,9.9,29.87,SSW,196,3.5,3.5,40,0.00,-RA,OVC,0.01,WeatherDisplay:10.37,2013-02-11 00:12:00,
2013-02-10 17:17:00,31.4,9.8,29.87,SSW,197,2.3,2.3,40,0.00,-RA,OVC,0.01,WeatherDisplay:10.37,2013-02-11 00:17:00,
2013-02-10 17:22:00,31.2,10.2,29.87,SSW,198,0.0,0.0,41,0.00,-RA,OVC,0.01,WeatherDisplay:10.37,2013-02-11 00:22:00,
2013-02-10 17:27:00,31.0,9.5,29.88,SSW,197,2.3,2.3,40,0.00,-RA,OVC,0.01,WeatherDisplay:10.37,2013-02-11 00:27:00,
2013-02-10 17:32:00,31.0,10.0,29.88,SSW,197,2.3,2.3,41,0.00,-RA,OVC,0.01,WeatherDisplay:10.37,2013-02-11 00:32:00,
2013-02-10 17:37:00,30.8,10.4,29.88,SSW,197,1.1,0.0,42,0.00,-RA,OVC,0.01,WeatherDisplay:10.37,2013-02-11 00:37:00,
2013-02-10 17:42:00,30.8,10.4,29.88,SSW,197,0.0,0.0,42,0.00,-RA,OVC,0.01,WeatherDisplay:10.37,2013-02-11 00:42:00,
2013-02-10 17:47:00,30.6,10.2,29.89,SSW,197,1.1,1.1,42,0.00,-RA,OVC,0.01,WeatherDisplay:10.37,2013-02-11 00:47:00,
2013-02-10 17:52:00,30.6,10.2,29.89,SSW,203,3.5,3.5,42,0.00,-RA,OVC,0.01,WeatherDisplay:10.37,2013-02-11 00:52:00,
2013-02-10 17:57:00,30.5,10.1,29.89,SSW,208,3.5,3.5,42,0.00,-RA,OVC,0.01,WeatherDisplay:10.37,2013-02-11 00:57:00,
2013-02-10 18:02:00,30.4,10.5,29.89,WSW,254,11.5,11.5,43,0.00,-RA,OVC,0.01,WeatherDisplay:10.37,2013-02-11 01:02:00,
2013-02-10 18:07:00,29.9,14.8,29.89,West,259,9.2,9.2,53,0.00,-RA,OVC,0.01,WeatherDisplay:10.37,2013-02-11 01:07:00,
2013-02-10 18:12:00,29.4,15.2,29.89,WSW,246,8.1,8.1,55,0.00,-RA,OVC,0.01,WeatherDisplay:10.37,2013-02-11 01:12:00,
2013-02-10 18:17:00,29.0,15.2,29.89,West,273,10.4,10.4,56,0.00,-RA,OVC,0.01,WeatherDisplay:10.37,2013-02-11 01:17:00,
2013-02-10 18:22:00,28.8,15.5,29.89,WSW,245,5.8,5.8,57,0.00,-RA,OVC,0.01,WeatherDisplay:10.37,2013-02-11 01:22:00,
2013-02-10 18:27:00,28.5,15.2,29.89,West,261,5.8,5.8,57,0.00,-RA,OVC,0.01,WeatherDisplay:10.37,2013-02-11 01:27:00,
2013-02-10 18:32:00,28.2,14.5,29.89,West,263,6.9,6.9,56,0.00,-RA,OVC,0.01,WeatherDisplay:10.37,2013-02-11 01:32:00,
2013-02-10 18:37:00,27.8,13.7,29.89,WSW,246,4.6,4.6,55,0.00,-RA,OVC,0.01,WeatherDisplay:10.37,2013-02-11 01:37:00,
2013-02-10 18:42:00,27.6,13.9,29.89,West,277,5.8,5.8,56,0.00,-RA,OVC,0.01,WeatherDisplay:10.37,2013-02-11 01:42:00,
2013-02-10 18:47:00,27.5,13.8,29.89,SW,234,5.8,5.8,56,0.00,-RA,OVC,0.01,WeatherDisplay:10.37,2013-02-11 01:47:00,
2013-02-10 18:52:00,27.4,13.7,29.89,WSW,242,4.6,4.6,56,0.00,-RA,OVC,0.01,WeatherDisplay:10.37,2013-02-11 01:52:00,
2013-02-10 18:57:00,27.3,14.1,29.89,West,271,9.2,9.2,57,0.00,-RA,OVC,0.01,WeatherDisplay:10.37,2013-02-11 01:57:00,
2013-02-10 19:02:00,27.2,14.0,29.89,WSW,256,6.9,6.9,57,0.00,-RA,OVC,0.01,WeatherDisplay:10.37,2013-02-11 02:02:00,
2013-02-10 19:07:00,27.1,14.7,29.89,WSW,255,6.9,6.9,59,0.00,-RA,OVC,0.01,WeatherDisplay:10.37,2013-02-11 02:07:00,
2013-02-10 19:12:00,27.0,14.2,29.89,WSW,254,6.9,6.9,58,0.00,-RA,OVC,0.01,WeatherDisplay:10.37,2013-02-11 02:12:00,
2013-02-10 19:17:00,27.0,14.2,29.89,WSW,254,6.9,6.9,58,0.00,-RA,OVC,0.01,WeatherDisplay:10.37,2013-02-11 02:17:00,
2013-02-10 19:22:00,26.7,14.3,29.94,West,267,3.5,3.5,59,0.00,-RA,OVC,0.01,WeatherDisplay:10.37,2013-02-11 02:22:00,
2013-02-10 19:27:00,26.6,14.2,29.94,West,267,2.3,2.3,59,0.00,-RA,OVC,0.01,WeatherDisplay:10.37,2013-02-11 02:27:00,
2013-02-10 19:32:00,26.4,14.4,29.95,West,267,3.5,3.5,60,0.00,-RA,OVC,0.01,WeatherDisplay:10.37,2013-02-11 02:32:00,
2013-02-10 19:37:00,26.3,14.3,29.95,West,267,1.1,1.1,60,0.00,-RA,OVC,0.01,WeatherDisplay:10.37,2013-02-11 02:37:00,
2013-02-10 19:42:00,26.2,14.6,29.95,West,267,3.5,3.5,61,0.00,-RA,OVC,0.01,WeatherDisplay:10.37,2013-02-11 02:42:00,
2013-02-10 19:47:00,26.1,14.5,29.95,West,267,0.0,0.0,61,0.00,-RA,OVC,0.01,WeatherDisplay:10.37,2013-02-11 02:47:00,
2013-02-10 19:52:00,26.0,14.4,29.95,West,267,3.5,3.5,61,0.00,-RA,OVC,0.01,WeatherDisplay:10.37,2013-02-11 02:52:00,
2013-02-10 19:57:00,25.8,14.2,29.95,West,267,3.5,3.5,61,0.00,-RA,OVC,0.01,WeatherDisplay:10.37,2013-02-11 02:57:00,
2013-02-10 20:02:00,25.7,14.1,29.95,West,267,2.3,2.3,61,0.00,-RA,OVC,0.01,WeatherDisplay:10.37,2013-02-11 03:02:00,
2013-02-10 20:07:00,25.5,13.9,29.95,West,267,1.1,0.0,61,0.00,-RA,OVC,0.01,WeatherDisplay:10.37,2013-02-11 03:07:00,
2013-02-10 20:12:00,25.4,13.8,29.95,West,267,0.0,0.0,61,0.00,-RA,OVC,0.01,WeatherDisplay:10.37,2013-02-11 03:12:00,
2013-02-10 20:17:00,25.3,13.7,29.95,West,267,2.3,2.3,61,0.00,-RA,OVC,0.01,WeatherDisplay:10.37,2013-02-11 03:17:00,
2013-02-10 20:22:00,25.2,13.6,29.95,West,267,3.5,3.5,61,0.00,-RA,OVC,0.01,WeatherDisplay:10.37,2013-02-11 03:22:00,
2013-02-10 20:27:00,25.1,13.5,29.95,West,267,3.5,3.5,61,0.00,-RA,OVC,0.01,WeatherDisplay:10.37,2013-02-11 03:27:00,
2013-02-10 20:32:00,25.1,13.5,29.95,West,267,3.5,3.5,61,0.00,-RA,OVC,0.01,WeatherDisplay:10.37,2013-02-11 03:32:00,
2013-02-10 20:37:00,25.0,13.8,29.95,West,267,3.5,3.5,62,0.00,-RA,OVC,0.01,WeatherDisplay:10.37,2013-02-11 03:37:00,
2013-02-10 20:42:00,25.0,13.8,29.95,West,268,3.5,3.5,62,0.00,-RA,OVC,0.01,WeatherDisplay:10.37,2013-02-11 03:42:00,
2013-02-10 20:47:00,24.9,13.7,29.95,West,269,0.0,0.0,62,0.00,-RA,OVC,0.01,WeatherDisplay:10.37,2013-02-11 03:47:00,
2013-02-10 20:52:00,25.0,13.8,29.95,West,269,3.5,3.5,62,0.00,-RA,OVC,0.01,WeatherDisplay:10.37,2013-02-11 03:52:00,
2013-02-10 20:57:00,25.0,13.8,29.95,West,269,0.0,0.0,62,0.00,-RA,OVC,0.01,WeatherDisplay:10.37,2013-02-11 03:57:00,
2013-02-10 21:02:00,25.0,13.8,29.95,West,269,4.6,4.6,62,0.00,-RA,OVC,0.01,WeatherDisplay:10.37,2013-02-11 04:02:00,
2013-02-10 21:07:00,25.0,13.8,29.95,West,270,3.5,3.5,62,0.00,-RA,OVC,0.01,WeatherDisplay:10.37,2013-02-11 04:07:00,
2013-02-10 21:12:00,25.0,14.2,29.95,West,270,3.5,3.5,63,0.00,-RA,OVC,0.01,WeatherDisplay:10.37,2013-02-11 04:12:00,
2013-02-10 21:17:00,24.9,14.1,29.95,West,270,3.5,3.5,63,0.00,-RA,OVC,0.01,WeatherDisplay:10.37,2013-02-11 04:17:00,
2013-02-10 21:22:00,24.7,14.2,29.98,West,271,2.0,2.0,64,0.00,-RA,OVC,0.01,WeatherDisplay:10.37,2013-02-11 04:22:00,
2013-02-10 21:27:00,24.6,14.1,29.98,West,271,3.5,3.5,64,0.00,-RA,OVC,0.01,WeatherDisplay:10.37,2013-02-11 04:27:00,
2013-02-10 21:32:00,24.4,14.3,29.98,West,271,3.5,3.5,65,0.00,-RA,OVC,0.01,WeatherDisplay:10.37,2013-02-11 04:32:00,
2013-02-10 21:37:00,24.2,14.5,29.98,West,271,3.5,3.5,66,0.00,-RA,OVC,0.01,WeatherDisplay:10.37,2013-02-11 04:37:00,
2013-02-10 21:42:00,24.0,13.9,29.98,West,271,0.0,0.0,65,0.00,-RA,OVC,0.01,WeatherDisplay:10.37,2013-02-11 04:42:00,
2013-02-10 21:47:00,23.8,13.7,29.98,West,271,0.0,0.0,65,0.00,-RA,OVC,0.01,WeatherDisplay:10.37,2013-02-11 04:47:00,
2013-02-10 21:52:00,23.6,13.5,29.98,West,271,1.1,1.1,65,0.00,-RA,OVC,0.01,WeatherDisplay:10.37,2013-02-11 04:52:00,
2013-02-10 21:57:00,23.4,13.4,29.98,West,271,2.3,2.3,65,0.00,-RA,OVC,0.01,WeatherDisplay:10.37,2013-02-11 04:57:00,
2013-02-10 22:00:00,23.3,13.3,29.98,West,271,0.0,0.8,65,0.00,-RA,OVC,0.01,WeatherDisplay:10.37,2013-02-11 05:00:00,
2013-02-10 22:05:00,23.2,13.5,29.98,West,271,3.5,3.5,66,0.00,-RA,OVC,0.01,WeatherDisplay:10.37,2013-02-11 05:05:00,
2013-02-10 22:10:00,23.1,13.4,29.98,West,271,0.0,0.0,66,0.00,-RA,OVC,0.01,WeatherDisplay:10.37,2013-02-11 05:10:00,
2013-02-10 22:15:00,23.0,13.0,29.98,West,271,3.5,3.5,65,0.00,-RA,OVC,0.01,WeatherDisplay:10.37,2013-02-11 05:15:00,
2013-02-10 22:20:00,22.9,12.9,29.98,West,271,5.8,5.8,65,0.00,-RA,OVC,0.01,WeatherDisplay:10.37,2013-02-11 05:20:00,
2013-02-10 22:25:00,22.8,12.8,29.99,West,271,3.5,3.5,65,0.00,-RA,OVC,0.01,WeatherDisplay:10.37,2013-02-11 05:25:00,
2013-02-10 22:30:00,22.6,12.9,29.99,West,273,5.8,5.8,66,0.00,-RA,OVC,0.01,WeatherDisplay:10.37,2013-02-11 05:30:00,
2013-02-10 22:35:00,22.4,13.1,29.99,West,273,4.6,4.6,67,0.00,-RA,OVC,0.01,WeatherDisplay:10.37,2013-02-11 05:35:00,
2013-02-10 22:40:00,22.2,13.2,29.99,West,273,3.5,3.5,68,0.00,-RA,OVC,0.01,WeatherDisplay:10.37,2013-02-11 05:40:00,
2013-02-10 22:45:00,22.1,13.5,29.99,West,273,3.5,3.5,69,0.00,-RA,OVC,0.01,WeatherDisplay:10.37,2013-02-11 05:45:00,
2013-02-10 22:50:00,22.0,13.4,29.99,West,273,3.5,3.5,69,0.00,-RA,OVC,0.01,WeatherDisplay:10.37,2013-02-11 05:50:00,
2013-02-10 22:55:00,22.0,13.4,30.00,West,273,4.6,4.6,69,0.00,-RA,OVC,0.01,WeatherDisplay:10.37,2013-02-11 05:55:00,
2013-02-10 23:00:00,21.9,13.3,30.00,West,273,3.5,3.5,69,0.00,-RA,OVC,0.01,WeatherDisplay:10.37,2013-02-11 06:00:00,
2013-02-10 23:05:00,21.8,13.5,30.00,West,273,3.5,3.5,70,0.00,-RA,OVC,0.01,WeatherDisplay:10.37,2013-02-11 06:05:00,
2013-02-10 23:10:00,21.8,13.5,30.00,West,273,3.5,3.5,70,0.00,-RA,OVC,0.01,WeatherDisplay:10.37,2013-02-11 06:10:00,
2013-02-10 23:15:00,21.9,13.6,30.00,West,273,3.5,3.5,70,0.00,-RA,OVC,0.01,WeatherDisplay:10.37,2013-02-11 06:15:00,
2013-02-10 23:20:00,21.9,13.6,30.00,West,273,2.3,2.3,70,0.00,-RA,OVC,0.01,WeatherDisplay:10.37,2013-02-11 06:20:00,
2013-02-10 23:25:00,22.1,13.8,30.00,West,273,5.0,5.0,70,0.00,-RA,OVC,0.01,WeatherDisplay:10.37,2013-02-11 06:25:00,
2013-02-10 23:30:00,22.2,13.9,30.00,West,273,3.5,3.5,70,0.00,-RA,OVC,0.01,WeatherDisplay:10.37,2013-02-11 06:30:00,
2013-02-10 23:35:00,22.2,13.6,30.00,West,273,3.5,3.5,69,0.00,-RA,OVC,0.01,WeatherDisplay:10.37,2013-02-11 06:35:00,
2013-02-10 23:40:00,22.4,13.8,30.00,West,273,3.0,3.0,69,0.00,-RA,OVC,0.01,WeatherDisplay:10.37,2013-02-11 06:40:00,
2013-02-10 23:45:00,22.4,13.8,30.00,West,273,3.0,3.0,69,0.00,-RA,OVC,0.01,WeatherDisplay:10.37,2013-02-11 06:45:00,
2013-02-10 23:50:00,22.4,13.8,30.00,West,273,3.5,3.5,69,0.00,-RA,OVC,0.01,WeatherDisplay:10.37,2013-02-11 06:50:00,
2013-02-10 23:55:00,22.5,13.9,30.00,West,273,2.0,2.0,69,0.00,-RA,OVC,0.01,WeatherDisplay:10.37,2013-02-11 06:55:00,